sensor_id;sensor_type;location;lat;lon;timestamp;P1;durP1;ratioP1;P2;durP2;ratioP2
61739;SDS011;47645;45.288;12.038;2024-01-16T00:01:00;95.8;;;49.6;;
61739;SDS011;47645;45.288;12.038;2024-01-16T00:11:01;74.3;;;40.3;;
61739;SDS011;47645;45.288;12.038;2024-01-16T00:21:01;63.5;;;35.6;;
61739;SDS011;47645;45.288;12.038;2024-01-16T00:31:01;88.0;;;45.1;;
61739;SDS011;47645;45.288;12.038;2024-01-16T00:41:01;63.4;;;34.7;;
61739;SDS011;47645;45.288;12.038;2024-01-16T00:51:01;67.0;;;37.3;;
61739;SDS011;47645;45.288;12.038;2024-01-16T01:01:02;60.5;;;33.3;;
61739;SDS011;47645;45.288;12.038;2024-01-16T01:11:03;63.0;;;34.3;;
61739;SDS011;47645;45.288;12.038;2024-01-16T01:21:02;54.7;;;31.1;;
61739;SDS011;47645;45.288;12.038;2024-01-16T01:31:03;71.2;;;36.3;;
61739;SDS011;47645;45.288;12.038;2024-01-16T01:41:03;73.2;;;40.4;;
61739;SDS011;47645;45.288;12.038;2024-01-16T01:51:04;76.9;;;40.5;;
61739;SDS011;47645;45.288;12.038;2024-01-16T02:01:04;73.9;;;37.4;;
61739;SDS011;47645;45.288;12.038;2024-01-16T02:11:04;70.0;;;34.7;;
61739;SDS011;47645;45.288;12.038;2024-01-16T02:21:04;69.1;;;36.4;;
61739;SDS011;47645;45.288;12.038;2024-01-16T02:31:05;66.2;;;35.0;;
61739;SDS011;47645;45.288;12.038;2024-01-16T02:41:06;60.8;;;34.4;;
61739;SDS011;47645;45.288;12.038;2024-01-16T02:51:05;65.7;;;34.8;;
61739;SDS011;47645;45.288;12.038;2024-01-16T03:01:06;63.2;;;35.0;;
61739;SDS011;47645;45.288;12.038;2024-01-16T03:11:06;68.8;;;36.8;;
61739;SDS011;47645;45.288;12.038;2024-01-16T03:21:06;58.4;;;31.7;;
61739;SDS011;47645;45.288;12.038;2024-01-16T03:31:07;59.9;;;31.8;;
61739;SDS011;47645;45.288;12.038;2024-01-16T03:41:08;58.5;;;31.2;;
61739;SDS011;47645;45.288;12.038;2024-01-16T03:51:08;58.2;;;31.5;;
61739;SDS011;47645;45.288;12.038;2024-01-16T04:01:08;57.6;;;31.8;;
61739;SDS011;47645;45.288;12.038;2024-01-16T04:11:11;73.6;;;37.5;;
61739;SDS011;47645;45.288;12.038;2024-01-16T04:21:09;65.8;;;35.9;;
61739;SDS011;47645;45.288;12.038;2024-01-16T04:31:09;71.8;;;37.8;;
61739;SDS011;47645;45.288;12.038;2024-01-16T04:41:09;61.4;;;32.8;;
61739;SDS011;47645;45.288;12.038;2024-01-16T04:51:10;62.6;;;33.6;;
61739;SDS011;47645;45.288;12.038;2024-01-16T05:01:10;58.1;;;31.3;;
61739;SDS011;47645;45.288;12.038;2024-01-16T05:11:10;62.0;;;31.6;;
61739;SDS011;47645;45.288;12.038;2024-01-16T05:21:11;57.6;;;30.9;;
61739;SDS011;47645;45.288;12.038;2024-01-16T05:31:11;60.8;;;32.5;;
61739;SDS011;47645;45.288;12.038;2024-01-16T05:41:11;51.0;;;27.9;;
61739;SDS011;47645;45.288;12.038;2024-01-16T05:51:12;48.6;;;25.6;;
61739;SDS011;47645;45.288;12.038;2024-01-16T06:01:13;45.1;;;26.9;;
61739;SDS011;47645;45.288;12.038;2024-01-16T06:11:12;48.1;;;25.3;;
61739;SDS011;47645;45.288;12.038;2024-01-16T06:21:13;45.4;;;25.6;;
61739;SDS011;47645;45.288;12.038;2024-01-16T06:31:13;44.7;;;24.9;;
61739;SDS011;47645;45.288;12.038;2024-01-16T06:41:13;39.2;;;21.3;;
61739;SDS011;47645;45.288;12.038;2024-01-16T06:51:14;35.9;;;22.1;;
61739;SDS011;47645;45.288;12.038;2024-01-16T07:01:14;35.3;;;19.9;;
61739;SDS011;47645;45.288;12.038;2024-01-16T07:11:14;38.2;;;22.9;;
61739;SDS011;47645;45.288;12.038;2024-01-16T07:21:16;39.3;;;21.9;;
61739;SDS011;47645;45.288;12.038;2024-01-16T07:31:16;33.9;;;18.3;;
61739;SDS011;47645;45.288;12.038;2024-01-16T07:41:15;32.6;;;18.8;;
61739;SDS011;47645;45.288;12.038;2024-01-16T07:51:16;30.1;;;18.6;;
61739;SDS011;47645;45.288;12.038;2024-01-16T08:01:16;33.4;;;18.3;;
61739;SDS011;47645;45.288;12.038;2024-01-16T08:11:18;34.5;;;18.7;;
61739;SDS011;47645;45.288;12.038;2024-01-16T08:21:17;24.8;;;15.7;;
61739;SDS011;47645;45.288;12.038;2024-01-16T08:31:18;22.0;;;13.7;;
61739;SDS011;47645;45.288;12.038;2024-01-16T08:41:17;23.1;;;13.1;;
61739;SDS011;47645;45.288;12.038;2024-01-16T08:51:18;17.5;;;11.6;;
61739;SDS011;47645;45.288;12.038;2024-01-16T09:01:18;16.1;;;9.3;;
61739;SDS011;47645;45.288;12.038;2024-01-16T09:11:18;15.0;;;10.1;;
61739;SDS011;47645;45.288;12.038;2024-01-16T09:21:19;13.2;;;8.4;;
61739;SDS011;47645;45.288;12.038;2024-01-16T09:31:19;15.4;;;9.1;;
61739;SDS011;47645;45.288;12.038;2024-01-16T09:41:19;16.1;;;7.5;;
61739;SDS011;47645;45.288;12.038;2024-01-16T09:51:20;10.3;;;6.4;;
61739;SDS011;47645;45.288;12.038;2024-01-16T10:01:20;10.9;;;5.8;;
61739;SDS011;47645;45.288;12.038;2024-01-16T10:11:20;7.7;;;4.7;;
61739;SDS011;47645;45.288;12.038;2024-01-16T10:21:22;6.5;;;4.5;;
61739;SDS011;47645;45.288;12.038;2024-01-16T10:31:23;7.3;;;4.3;;
61739;SDS011;47645;45.288;12.038;2024-01-16T10:41:25;6.1;;;3.9;;
61739;SDS011;47645;45.288;12.038;2024-01-16T10:51:22;7.5;;;3.8;;
61739;SDS011;47645;45.288;12.038;2024-01-16T11:01:22;6.0;;;3.8;;
61739;SDS011;47645;45.288;12.038;2024-01-16T11:11:23;5.0;;;3.6;;
61739;SDS011;47645;45.288;12.038;2024-01-16T11:21:24;5.9;;;3.4;;
61739;SDS011;47645;45.288;12.038;2024-01-16T11:31:27;6.5;;;3.7;;
61739;SDS011;47645;45.288;12.038;2024-01-16T11:41:42;8.6;;;4.3;;
61739;SDS011;47645;45.288;12.038;2024-01-16T11:51:25;7.5;;;3.9;;
61739;SDS011;47645;45.288;12.038;2024-01-16T12:01:25;6.2;;;3.7;;
61739;SDS011;47645;45.288;12.038;2024-01-16T12:11:26;7.1;;;3.2;;
61739;SDS011;47645;45.288;12.038;2024-01-16T12:21:26;5.5;;;3.0;;
61739;SDS011;47645;45.288;12.038;2024-01-16T12:31:27;6.9;;;2.9;;
61739;SDS011;47645;45.288;12.038;2024-01-16T12:41:27;6.8;;;3.0;;
61739;SDS011;47645;45.288;12.038;2024-01-16T12:51:28;6.3;;;2.7;;
61739;SDS011;47645;45.288;12.038;2024-01-16T13:01:29;4.8;;;2.6;;
61739;SDS011;47645;45.288;12.038;2024-01-16T13:11:29;5.7;;;2.6;;
61739;SDS011;47645;45.288;12.038;2024-01-16T13:21:30;4.4;;;2.7;;
61739;SDS011;47645;45.288;12.038;2024-01-16T13:31:30;4.3;;;1.9;;
61739;SDS011;47645;45.288;12.038;2024-01-16T13:41:31;4.1;;;2.5;;
61739;SDS011;47645;45.288;12.038;2024-01-16T13:51:31;3.8;;;2.2;;
61739;SDS011;47645;45.288;12.038;2024-01-16T14:01:33;3.7;;;2.0;;
61739;SDS011;47645;45.288;12.038;2024-01-16T14:11:32;4.5;;;2.1;;
61739;SDS011;47645;45.288;12.038;2024-01-16T14:21:33;5.1;;;2.7;;
61739;SDS011;47645;45.288;12.038;2024-01-16T14:31:33;4.8;;;3.0;;
61739;SDS011;47645;45.288;12.038;2024-01-16T14:41:34;3.9;;;2.5;;
61739;SDS011;47645;45.288;12.038;2024-01-16T14:51:35;8.0;;;3.7;;
61739;SDS011;47645;45.288;12.038;2024-01-16T15:01:35;21.5;;;9.5;;
61739;SDS011;47645;45.288;12.038;2024-01-16T15:11:36;8.9;;;4.3;;
61739;SDS011;47645;45.288;12.038;2024-01-16T15:21:39;4.3;;;2.9;;
61739;SDS011;47645;45.288;12.038;2024-01-16T15:31:37;5.6;;;3.4;;
61739;SDS011;47645;45.288;12.038;2024-01-16T15:41:38;7.1;;;3.9;;
61739;SDS011;47645;45.288;12.038;2024-01-16T15:51:38;8.0;;;4.2;;
61739;SDS011;47645;45.288;12.038;2024-01-16T16:01:39;8.9;;;4.3;;
61739;SDS011;47645;45.288;12.038;2024-01-16T16:11:42;11.0;;;4.8;;
61739;SDS011;47645;45.288;12.038;2024-01-16T16:21:40;10.9;;;5.2;;
61739;SDS011;47645;45.288;12.038;2024-01-16T16:31:40;15.4;;;9.3;;
61739;SDS011;47645;45.288;12.038;2024-01-16T16:41:41;9.3;;;5.9;;
61739;SDS011;47645;45.288;12.038;2024-01-16T16:51:43;9.8;;;5.2;;
61739;SDS011;47645;45.288;12.038;2024-01-16T17:01:42;10.6;;;6.5;;
61739;SDS011;47645;45.288;12.038;2024-01-16T17:11:43;21.6;;;11.1;;
61739;SDS011;47645;45.288;12.038;2024-01-16T17:21:43;60.5;;;27.7;;
61739;SDS011;47645;45.288;12.038;2024-01-16T17:31:43;43.7;;;19.6;;
61739;SDS011;47645;45.288;12.038;2024-01-16T17:41:45;27.3;;;15.2;;
61739;SDS011;47645;45.288;12.038;2024-01-16T17:51:45;35.0;;;20.1;;
61739;SDS011;47645;45.288;12.038;2024-01-16T18:01:46;27.4;;;15.6;;
61739;SDS011;47645;45.288;12.038;2024-01-16T18:11:53;19.9;;;11.8;;
61739;SDS011;47645;45.288;12.038;2024-01-16T18:21:46;22.3;;;12.0;;
61739;SDS011;47645;45.288;12.038;2024-01-16T18:31:46;21.5;;;11.7;;
61739;SDS011;47645;45.288;12.038;2024-01-16T18:41:48;21.6;;;10.7;;
61739;SDS011;47645;45.288;12.038;2024-01-16T18:51:48;26.6;;;12.7;;
61739;SDS011;47645;45.288;12.038;2024-01-16T19:01:48;23.3;;;12.0;;
61739;SDS011;47645;45.288;12.038;2024-01-16T19:11:49;30.2;;;14.5;;
61739;SDS011;47645;45.288;12.038;2024-01-16T19:21:49;32.6;;;17.7;;
61739;SDS011;47645;45.288;12.038;2024-01-16T19:31:51;36.3;;;18.6;;
61739;SDS011;47645;45.288;12.038;2024-01-16T19:41:50;29.4;;;16.1;;
61739;SDS011;47645;45.288;12.038;2024-01-16T19:51:50;32.8;;;16.7;;
61739;SDS011;47645;45.288;12.038;2024-01-16T20:01:52;33.2;;;18.2;;
61739;SDS011;47645;45.288;12.038;2024-01-16T20:11:52;32.4;;;19.5;;
61739;SDS011;47645;45.288;12.038;2024-01-16T20:21:52;37.7;;;19.9;;
61739;SDS011;47645;45.288;12.038;2024-01-16T20:31:52;33.1;;;19.5;;
61739;SDS011;47645;45.288;12.038;2024-01-16T20:41:52;35.4;;;19.0;;
61739;SDS011;47645;45.288;12.038;2024-01-16T20:51:55;39.5;;;23.0;;
61739;SDS011;47645;45.288;12.038;2024-01-16T21:01:54;45.0;;;23.1;;
61739;SDS011;47645;45.288;12.038;2024-01-16T21:11:54;42.7;;;23.1;;
61739;SDS011;47645;45.288;12.038;2024-01-16T21:21:55;47.1;;;25.0;;
61739;SDS011;47645;45.288;12.038;2024-01-16T21:31:57;42.5;;;23.0;;
61739;SDS011;47645;45.288;12.038;2024-01-16T21:41:56;46.3;;;24.2;;
61739;SDS011;47645;45.288;12.038;2024-01-16T21:51:56;36.4;;;21.0;;
61739;SDS011;47645;45.288;12.038;2024-01-16T22:01:56;41.5;;;22.2;;
61739;SDS011;47645;45.288;12.038;2024-01-16T22:11:57;40.7;;;21.9;;
61739;SDS011;47645;45.288;12.038;2024-01-16T22:21:57;36.2;;;20.1;;
61739;SDS011;47645;45.288;12.038;2024-01-16T22:31:57;36.6;;;21.2;;
61739;SDS011;47645;45.288;12.038;2024-01-16T22:41:58;39.9;;;22.4;;
61739;SDS011;47645;45.288;12.038;2024-01-16T22:51:58;36.7;;;19.1;;
61739;SDS011;47645;45.288;12.038;2024-01-16T23:01:59;33.5;;;19.9;;
61739;SDS011;47645;45.288;12.038;2024-01-16T23:11:59;34.3;;;19.5;;
61739;SDS011;47645;45.288;12.038;2024-01-16T23:22:00;35.9;;;20.2;;
61739;SDS011;47645;45.288;12.038;2024-01-16T23:32:01;29.8;;;17.6;;
61739;SDS011;47645;45.288;12.038;2024-01-16T23:42:00;31.1;;;17.2;;
61739;SDS011;47645;45.288;12.038;2024-01-16T23:52:01;27.7;;;16.9;;
